Wetterdaten: Woche 28.11.16 - 04.12.16 (KW48)
Datum Zeit Temp. A. Feuchte A. Luftdruck Regen Wind Richtung Taupunkt Windchill Windben
28.11.2016 00:00 3,5 C 70 % 1016,7 hPa 0,0 l/m 6,3 km/h N -1,4 C 2,8 C 20,9 km/h
28.11.2016 01:00 3,1 C 72 % 1017,0 hPa 0,0 l/m 7,5 km/h N -1,5 C 2,1 C 21,3 km/h
28.11.2016 02:00 2,8 C 72 % 1017,6 hPa 0,0 l/m 7,9 km/h N -1,8 C 1,3 C 21,3 km/h
28.11.2016 03:00 2,8 C 68 % 1017,8 hPa 0,0 l/m 10,8 km/h N -2,6 C -0,9 C 26,6 km/h
28.11.2016 04:00 2,3 C 70 % 1018,0 hPa 0,0 l/m 10,6 km/h N -2,6 C -1,2 C 26,9 km/h
28.11.2016 05:00 1,8 C 70 % 1019,0 hPa 0,0 l/m 7,8 km/h N -3,0 C 0,2 C 25,0 km/h
28.11.2016 06:00 1,3 C 73 % 1020,0 hPa 0,0 l/m 6,7 km/h N -3,1 C 0,7 C 19,7 km/h
28.11.2016 07:00 1,2 C 71 % 1020,8 hPa 0,0 l/m 7,8 km/h N -3,4 C -0,2 C 22,9 km/h
28.11.2016 08:00 1,3 C 69 % 1021,6 hPa 0,0 l/m 8,6 km/h N -3,7 C -0,8 C 23,3 km/h
28.11.2016 09:00 1,9 C 67 % 1022,2 hPa 0,0 l/m 9,6 km/h N -3,7 C -0,9 C 24,1 km/h
28.11.2016 10:00 2,3 C 65 % 1022,6 hPa 0,0 l/m 12,6 km/h N -3,7 C -2,8 C 28,6 km/h
28.11.2016 11:00 2,8 C 62 % 1022,8 hPa 0,0 l/m 11,7 km/h N -3,6 C -1,5 C 27,4 km/h
28.11.2016 12:00 2,4 C 65 % 1023,2 hPa 0,0 l/m 8,6 km/h N -3,6 C 0,3 C 22,1 km/h
28.11.2016 13:00 2,4 C 65 % 1023,5 hPa 0,0 l/m 9,9 km/h N -3,5 C -0,7 C 24,1 km/h
28.11.2016 14:00 2,0 C 70 % 1024,0 hPa 0,0 l/m 9,4 km/h N -2,9 C -0,6 C 21,7 km/h
28.11.2016 15:00 1,6 C 69 % 1024,5 hPa 0,0 l/m 8,1 km/h N -3,5 C -0,1 C 22,1 km/h
28.11.2016 16:00 1,1 C 70 % 1025,2 hPa 0,0 l/m 7,2 km/h N -3,7 C 0,2 C 18,1 km/h
28.11.2016 17:00 0,7 C 71 % 1026,1 hPa 0,0 l/m 8,3 km/h N -4,0 C -1,2 C 20,5 km/h
28.11.2016 18:00 0,6 C 69 % 1026,7 hPa 0,0 l/m 9,8 km/h N -4,4 C -2,5 C 24,1 km/h
28.11.2016 19:00 0,4 C 70 % 1027,3 hPa 0,0 l/m 9,7 km/h N -4,4 C -2,7 C 26,5 km/h
28.11.2016 20:00 0,3 C 71 % 1028,1 hPa 0,0 l/m 8,6 km/h N -4,4 C -1,9 C 23,7 km/h
28.11.2016 21:00 0,1 C 72 % 1028,8 hPa 0,0 l/m 8,6 km/h N -4,4 C -2,1 C 23,3 km/h
28.11.2016 22:00 0,0 C 73 % 1029,3 hPa 0,0 l/m 7,6 km/h N -4,2 C -1,2 C 21,7 km/h
28.11.2016 23:00 -0,2 C 73 % 1029,9 hPa 0,0 l/m 6,3 km/h N -4,4 C -0,7 C 18,5 km/h
29.11.2016 00:00 -0,5 C 74 % 1030,3 hPa 0,0 l/m 5,8 km/h N -4,5 C -0,7 C 16,9 km/h
29.11.2016 01:00 -0,9 C 75 % 1030,6 hPa 0,0 l/m 3,1 km/h N -4,7 C -0,9 C 10,9 km/h
29.11.2016 02:00 -1,2 C 76 % 1030,9 hPa 0,0 l/m 3,7 km/h N -4,9 C -1,2 C 13,7 km/h
29.11.2016 03:00 -1,2 C 76 % 1031,2 hPa 0,0 l/m 4,9 km/h N -4,9 C -1,2 C 14,1 km/h
29.11.2016 04:00 -1,5 C 77 % 1031,7 hPa 0,0 l/m 3,9 km/h N -5,0 C -1,5 C 9,7 km/h
29.11.2016 05:00 -1,6 C 78 % 1032,0 hPa 0,0 l/m 5,5 km/h N -5,0 C -1,5 C 17,7 km/h
29.11.2016 06:00 -1,5 C 77 % 1032,6 hPa 0,0 l/m 6,8 km/h N -5,0 C -2,2 C 19,3 km/h
29.11.2016 07:00 -1,6 C 78 % 1033,3 hPa 0,0 l/m 6,7 km/h N -5,0 C -2,2 C 18,1 km/h
29.11.2016 08:00 -1,2 C 76 % 1033,7 hPa 0,0 l/m 8,7 km/h N -4,9 C -3,6 C 21,7 km/h
29.11.2016 09:00 -0,5 C 74 % 1034,0 hPa 0,0 l/m 7,6 km/h N -4,6 C -1,7 C 19,7 km/h
29.11.2016 10:00 0,5 C 70 % 1034,1 hPa 0,0 l/m 6,9 km/h N -4,3 C -0,0 C 19,7 km/h
29.11.2016 11:00 1,1 C 67 % 1033,9 hPa 0,0 l/m 8,1 km/h N -4,4 C -0,6 C 19,3 km/h
29.11.2016 12:00 1,7 C 61 % 1033,7 hPa 0,0 l/m 9,5 km/h N -5,0 C -1,1 C 25,8 km/h
29.11.2016 13:00 1,8 C 59 % 1033,1 hPa 0,0 l/m 10,0 km/h N -5,4 C -1,5 C 24,1 km/h
29.11.2016 14:00 1,9 C 60 % 1032,8 hPa 0,0 l/m 9,8 km/h N -5,1 C -1,1 C 26,1 km/h
29.11.2016 15:00 1,7 C 60 % 1032,6 hPa 0,0 l/m 6,9 km/h N -5,2 C 0,8 C 19,7 km/h
29.11.2016 16:00 0,8 C 64 % 1032,9 hPa 0,0 l/m 2,3 km/h N -5,1 C 0,8 C 10,1 km/h
29.11.2016 17:00 -0,1 C 69 % 1033,3 hPa 0,0 l/m 0,9 km/h N -5,1 C -0,1 C 9,3 km/h
29.11.2016 18:00 -0,2 C 70 % 1033,4 hPa 0,0 l/m 3,6 km/h N -4,9 C -0,2 C 11,3 km/h
29.11.2016 19:00 -0,2 C 68 % 1033,8 hPa 0,0 l/m 3,0 km/h N -5,3 C -0,2 C 11,3 km/h
29.11.2016 20:00 -0,3 C 68 % 1034,1 hPa 0,0 l/m 5,3 km/h N -5,4 C -0,3 C 19,7 km/h
29.11.2016 21:00 -0,2 C 67 % 1034,2 hPa 0,0 l/m 5,5 km/h N -5,6 C -0,8 C 16,9 km/h
29.11.2016 22:00 0,1 C 63 % 1034,1 hPa 0,0 l/m 7,9 km/h N -6,0 C -1,4 C 18,1 km/h
29.11.2016 23:00 -0,1 C 61 % 1033,9 hPa 0,0 l/m 4,6 km/h N -6,6 C -0,1 C 13,7 km/h
30.11.2016 00:00 -0,8 C 64 % 1033,6 hPa 0,0 l/m 0,4 km/h N -6,8 C -0,8 C 5,6 km/h
30.11.2016 01:00 -2,1 C 69 % 1033,4 hPa 0,0 l/m 0,2 km/h N -7,0 C -2,1 C 3,2 km/h
30.11.2016 02:00 -2,0 C 69 % 1033,3 hPa 0,0 l/m 0,1 km/h N -6,9 C -2,0 C 1,6 km/h
30.11.2016 03:00 -3,0 C 71 % 1033,0 hPa 0,0 l/m 0,0 km/h N -7,5 C -3,0 C 1,2 km/h
30.11.2016 04:00 -3,2 C 74 % 1032,9 hPa 0,0 l/m 0,1 km/h N -7,1 C -3,2 C 3,2 km/h
30.11.2016 05:00 -3,3 C 75 % 1032,8 hPa 0,0 l/m 0,1 km/h N -7,2 C -3,3 C 1,6 km/h
30.11.2016 06:00 -4,1 C 76 % 1032,6 hPa 0,0 l/m 0,0 km/h N -7,6 C -4,1 C 0,0 km/h
30.11.2016 07:00 -5,1 C 78 % 1032,3 hPa 0,0 l/m 0,0 km/h N -8,3 C -5,1 C 0,0 km/h
30.11.2016 08:00 -5,4 C 81 % 1032,5 hPa 0,0 l/m 0,0 km/h N -8,1 C -5,4 C 0,0 km/h
30.11.2016 09:00 -3,3 C 83 % 1032,3 hPa 0,0 l/m 0,0 km/h N -5,8 C -3,3 C 0,4 km/h
30.11.2016 10:00 -0,3 C 76 % 1031,6 hPa 0,0 l/m 0,1 km/h N -4,1 C -0,3 C 2,0 km/h
30.11.2016 11:00 2,8 C 53 % 1030,7 hPa 0,0 l/m 1,6 km/h N -5,9 C 2,8 C 8,9 km/h
30.11.2016 12:00 4,9 C 45 % 1029,8 hPa 0,0 l/m 9,0 km/h N -6,1 C 2,7 C 27,0 km/h
30.11.2016 13:00 5,4 C 46 % 1028,6 hPa 0,0 l/m 10,2 km/h N -5,2 C 2,4 C 29,0 km/h
30.11.2016 14:00 5,6 C 45 % 1027,7 hPa 0,0 l/m 9,7 km/h N -5,6 C 2,9 C 27,3 km/h
30.11.2016 15:00 5,8 C 52 % 1027,5 hPa 0,0 l/m 11,6 km/h N -3,5 C 1,9 C 29,8 km/h
30.11.2016 16:00 5,4 C 55 % 1026,9 hPa 0,0 l/m 12,9 km/h N -2,8 C 0,7 C 35,8 km/h
30.11.2016 17:00 5,0 C 54 % 1026,4 hPa 0,0 l/m 10,9 km/h N -3,4 C 1,5 C 31,4 km/h
30.11.2016 18:00 4,7 C 57 % 1026,5 hPa 0,0 l/m 10,9 km/h N -3,2 C 1,2 C 27,8 km/h
30.11.2016 19:00 5,0 C 56 % 1026,3 hPa 0,0 l/m 10,0 km/h N -3,1 C 2,1 C 27,8 km/h
30.11.2016 20:00 5,4 C 46 % 1025,9 hPa 0,0 l/m 8,7 km/h N -5,4 C 3,5 C 23,3 km/h
30.11.2016 21:00 5,2 C 43 % 1025,4 hPa 0,0 l/m 9,0 km/h N -6,3 C 3,1 C 26,1 km/h
30.11.2016 22:00 4,2 C 55 % 1025,6 hPa 0,0 l/m 14,8 km/h N -4,1 C -1,6 C 37,8 km/h
30.11.2016 23:00 2,0 C 76 % 1025,3 hPa 0,0 l/m 15,0 km/h N -1,9 C -4,5 C 39,4 km/h
01.12.2016 00:00 1,8 C 77 % 1024,8 hPa 0,0 l/m 12,9 km/h N -1,7 C -3,4 C 39,4 km/h
01.12.2016 01:00 2,0 C 74 % 1024,8 hPa 0,3 l/m 16,8 km/h N -2,1 C -5,5 C 43,1 km/h
01.12.2016 02:00 1,0 C 82 % 1024,4 hPa 0,0 l/m 13,8 km/h N -1,7 C -4,9 C 35,8 km/h
01.12.2016 03:00 1,8 C 78 % 1024,0 hPa 0,0 l/m 12,9 km/h N -1,7 C -3,4 C 37,4 km/h
01.12.2016 04:00 1,3 C 83 % 1024,1 hPa 0,0 l/m 15,4 km/h N -1,3 C -5,6 C 38,2 km/h
01.12.2016 05:00 1,3 C 84 % 1023,7 hPa 1,0 l/m 16,5 km/h N -1,1 C -6,2 C 39,8 km/h
01.12.2016 06:00 1,6 C 84 % 1023,5 hPa 2,6 l/m 14,8 km/h N -0,8 C -4,9 C 36,2 km/h
01.12.2016 07:00 1,9 C 84 % 1023,4 hPa 0,8 l/m 14,8 km/h N -0,6 C -4,6 C 40,6 km/h
01.12.2016 08:00 2,8 C 82 % 1022,7 hPa 0,3 l/m 14,7 km/h N -0,1 C -3,4 C 38,2 km/h
01.12.2016 09:00 3,7 C 78 % 1021,8 hPa 0,0 l/m 15,1 km/h N 0,2 C -2,6 C 38,2 km/h
01.12.2016 10:00 4,8 C 72 % 1021,4 hPa 0,3 l/m 15,6 km/h N 0,1 C -1,4 C 41,0 km/h
01.12.2016 11:00 5,2 C 66 % 1020,6 hPa 0,0 l/m 19,7 km/h N -0,8 C -2,8 C 50,7 km/h
01.12.2016 12:00 5,3 C 67 % 1019,6 hPa 0,0 l/m 15,8 km/h N -0,4 C -1,0 C 44,3 km/h
01.12.2016 13:00 5,3 C 65 % 1018,7 hPa 0,0 l/m 12,7 km/h N -0,9 C 0,6 C 40,2 km/h
01.12.2016 14:00 5,1 C 68 % 1018,0 hPa 0,0 l/m 11,3 km/h N -0,4 C 1,3 C 40,2 km/h
01.12.2016 15:00 5,1 C 70 % 1018,1 hPa 0,3 l/m 12,9 km/h N -0,0 C 0,3 C 36,2 km/h
01.12.2016 16:00 5,2 C 69 % 1017,5 hPa 0,0 l/m 14,5 km/h N -0,0 C -0,4 C 40,2 km/h
01.12.2016 17:00 5,6 C 68 % 1016,3 hPa 0,0 l/m 13,7 km/h N 0,2 C 0,5 C 42,7 km/h
01.12.2016 18:00 5,8 C 67 % 1015,8 hPa 0,0 l/m 14,5 km/h N 0,1 C 0,5 C 39,4 km/h
01.12.2016 19:00 6,6 C 62 % 1015,5 hPa 0,0 l/m 16,9 km/h N -0,2 C 0,1 C 55,6 km/h
01.12.2016 20:00 6,6 C 61 % 1015,0 hPa 0,0 l/m 14,5 km/h N -0,4 C 1,2 C 47,5 km/h
01.12.2016 21:00 6,3 C 61 % 1014,1 hPa 0,0 l/m 20,1 km/h N -0,7 C -1,6 C 53,1 km/h
01.12.2016 22:00 6,1 C 61 % 1013,0 hPa 0,0 l/m 20,9 km/h N -0,8 C -2,1 C 58,8 km/h
01.12.2016 23:00 6,7 C 60 % 1012,4 hPa 0,0 l/m 20,9 km/h N -0,6 C -1,4 C 57,1 km/h
02.12.2016 00:00 6,4 C 63 % 1011,3 hPa 0,0 l/m 20,9 km/h N -0,2 C -1,8 C 53,1 km/h
02.12.2016 01:00 6,6 C 64 % 1010,3 hPa 0,0 l/m 24,1 km/h N 0,2 C -2,5 C 58,8 km/h
02.12.2016 02:00 6,6 C 66 % 1009,7 hPa 0,0 l/m 24,1 km/h N 0,7 C -2,5 C 63,6 km/h
02.12.2016 03:00 6,4 C 67 % 1009,5 hPa 0,0 l/m 26,5 km/h N 0,7 C -3,5 C 67,6 km/h
02.12.2016 04:00 6,3 C 68 % 1009,1 hPa 0,0 l/m 24,9 km/h N 0,8 C -3,2 C 61,2 km/h
02.12.2016 05:00 6,5 C 68 % 1008,8 hPa 0,0 l/m 23,3 km/h N 1,0 C -2,4 C 56,3 km/h
02.12.2016 06:00 6,3 C 70 % 1008,3 hPa 0,0 l/m 23,3 km/h N 1,1 C -2,7 C 70,8 km/h
02.12.2016 07:00 6,3 C 70 % 1007,7 hPa 0,0 l/m 23,4 km/h N 1,1 C -2,7 C 54,3 km/h
02.12.2016 08:00 6,6 C 69 % 1008,5 hPa 0,0 l/m 25,6 km/h N 1,2 C -3,0 C 54,7 km/h
02.12.2016 09:00 6,4 C 72 % 1009,5 hPa 0,0 l/m 24,1 km/h N 1,8 C -2,8 C 53,1 km/h
02.12.2016 10:00 5,3 C 79 % 1012,2 hPa 3,4 l/m 16,6 km/h N 1,9 C -1,2 C 43,0 km/h
02.12.2016 11:00 4,0 C 82 % 1013,4 hPa 0,3 l/m 12,1 km/h N 1,3 C -0,4 C 29,8 km/h
02.12.2016 12:00 4,3 C 81 % 1014,5 hPa 0,3 l/m 10,7 km/h N 1,3 C 0,8 C 24,5 km/h
02.12.2016 13:00 4,8 C 77 % 1015,1 hPa 0,0 l/m 11,0 km/h N 1,1 C 1,2 C 27,3 km/h
02.12.2016 14:00 5,0 C 73 % 1015,7 hPa 0,0 l/m 10,6 km/h N 0,5 C 1,6 C 27,0 km/h
02.12.2016 15:00 4,7 C 71 % 1016,7 hPa 0,0 l/m 7,2 km/h N -0,2 C 3,8 C 20,9 km/h
02.12.2016 16:00 4,2 C 71 % 1017,5 hPa 0,0 l/m 4,8 km/h N -0,7 C 4,2 C 14,9 km/h
02.12.2016 17:00 3,7 C 73 % 1018,5 hPa 0,0 l/m 8,1 km/h N -0,8 C 2,2 C 20,9 km/h
02.12.2016 18:00 3,2 C 76 % 1019,3 hPa 0,0 l/m 6,9 km/h N -0,7 C 2,6 C 18,1 km/h
02.12.2016 19:00 2,8 C 77 % 1020,0 hPa 0,0 l/m 5,2 km/h N -0,9 C 2,8 C 15,3 km/h
02.12.2016 20:00 2,3 C 77 % 1020,5 hPa 0,0 l/m 3,0 km/h N -1,4 C 2,3 C 12,5 km/h
02.12.2016 21:00 2,0 C 76 % 1021,0 hPa 0,0 l/m 1,7 km/h N -1,8 C 2,0 C 9,6 km/h
02.12.2016 22:00 2,0 C 75 % 1021,4 hPa 0,0 l/m 4,3 km/h N -2,1 C 2,0 C 15,3 km/h
02.12.2016 23:00 2,3 C 72 % 1022,0 hPa 0,0 l/m 7,4 km/h N -2,3 C 1,1 C 20,1 km/h
03.12.2016 00:00 1,8 C 71 % 1022,4 hPa 0,0 l/m 1,3 km/h N -2,9 C 1,8 C 6,0 km/h
03.12.2016 01:00 0,5 C 74 % 1022,7 hPa 0,0 l/m 0,0 km/h N -3,7 C 0,5 C 2,4 km/h
03.12.2016 02:00 -0,6 C 77 % 1023,0 hPa 0,0 l/m 0,1 km/h N -4,2 C -0,6 C 3,2 km/h
03.12.2016 03:00 -1,2 C 79 % 1023,4 hPa 0,0 l/m 0,1 km/h N -4,3 C -1,2 C 2,0 km/h
03.12.2016 04:00 -2,0 C 81 % 1023,6 hPa 0,0 l/m 0,0 km/h N -4,8 C -2,0 C 0,4 km/h
03.12.2016 05:00 -3,0 C 82 % 1023,8 hPa 0,0 l/m 0,1 km/h N -5,7 C -3,0 C 1,6 km/h
03.12.2016 06:00 -3,6 C 83 % 1024,2 hPa 0,0 l/m 0,0 km/h N -6,0 C -3,6 C 0,0 km/h
03.12.2016 07:00 -3,7 C 84 % 1024,4 hPa 0,0 l/m 0,0 km/h N -6,0 C -3,7 C 0,8 km/h
03.12.2016 08:00 -2,1 C 84 % 1024,8 hPa 0,0 l/m 0,2 km/h N -4,4 C -2,1 C 1,6 km/h
03.12.2016 09:00 0,8 C 82 % 1025,4 hPa 0,0 l/m 5,2 km/h N -2,0 C 0,8 C 14,9 km/h
03.12.2016 10:00 2,3 C 74 % 1026,1 hPa 0,0 l/m 5,9 km/h N -1,9 C 2,2 C 15,3 km/h
03.12.2016 11:00 2,9 C 68 % 1026,0 hPa 0,0 l/m 7,2 km/h N -2,4 C 2,2 C 17,7 km/h
03.12.2016 12:00 3,2 C 66 % 1026,0 hPa 0,0 l/m 6,8 km/h N -2,6 C 2,7 C 18,1 km/h
03.12.2016 13:00 3,4 C 63 % 1026,1 hPa 0,0 l/m 3,4 km/h N -3,0 C 3,4 C 10,1 km/h
03.12.2016 14:00 3,8 C 60 % 1026,2 hPa 0,0 l/m 1,1 km/h N -3,2 C 3,8 C 8,0 km/h
03.12.2016 15:00 3,3 C 61 % 1026,4 hPa 0,0 l/m 0,2 km/h N -3,4 C 3,3 C 3,2 km/h
03.12.2016 16:00 1,7 C 66 % 1026,8 hPa 0,0 l/m 0,0 km/h N -4,1 C 1,7 C 0,0 km/h
03.12.2016 17:00 -0,6 C 71 % 1027,4 hPa 0,0 l/m 0,0 km/h N -5,2 C -0,6 C 0,0 km/h
03.12.2016 18:00 -2,0 C 77 % 1027,9 hPa 0,0 l/m 0,0 km/h N -5,5 C -2,0 C 0,0 km/h
03.12.2016 19:00 -2,5 C 81 % 1028,0 hPa 0,0 l/m 0,0 km/h N -5,3 C -2,5 C 0,0 km/h
03.12.2016 20:00 -2,7 C 82 % 1028,3 hPa 0,0 l/m 0,0 km/h N -5,3 C -2,7 C 0,0 km/h
03.12.2016 21:00 -3,3 C 82 % 1028,6 hPa 0,0 l/m 0,0 km/h N -5,8 C -3,3 C 0,0 km/h
03.12.2016 22:00 -3,7 C 83 % 1028,7 hPa 0,0 l/m 0,0 km/h N -6,2 C -3,7 C 0,0 km/h
03.12.2016 23:00 -4,3 C 84 % 1029,1 hPa 0,0 l/m 0,0 km/h N -6,6 C -4,3 C 0,4 km/h
04.12.2016 00:00 -4,5 C 84 % 1029,1 hPa 0,0 l/m 0,0 km/h N -6,8 C -4,5 C 0,0 km/h
04.12.2016 01:00 -5,2 C 84 % 1029,3 hPa 0,0 l/m 0,0 km/h N -7,5 C -5,2 C 0,0 km/h
04.12.2016 02:00 -5,8 C 84 % 1029,6 hPa 0,0 l/m 0,0 km/h N -8,1 C -5,8 C 0,0 km/h
04.12.2016 03:00 -6,1 C 84 % 1029,5 hPa 0,0 l/m 0,0 km/h N -8,4 C -6,1 C 0,0 km/h
04.12.2016 04:00 -6,3 C 84 % 1029,7 hPa 0,0 l/m 0,0 km/h N -8,5 C -6,3 C 0,0 km/h
04.12.2016 05:00 -6,8 C 84 % 1029,9 hPa 0,0 l/m 0,0 km/h N -9,0 C -6,8 C 0,0 km/h
04.12.2016 06:00 -7,1 C 84 % 1030,2 hPa 0,0 l/m 0,0 km/h N -9,4 C -7,1 C 0,0 km/h
04.12.2016 07:00 -7,1 C 84 % 1030,5 hPa 0,0 l/m 0,0 km/h N -9,3 C -7,1 C 0,0 km/h
04.12.2016 08:00 -6,7 C 84 % 1031,1 hPa 0,0 l/m 0,0 km/h N -8,9 C -6,7 C 0,0 km/h
04.12.2016 09:00 -4,9 C 84 % 1031,5 hPa 0,0 l/m 0,0 km/h N -7,2 C -4,9 C 0,0 km/h
04.12.2016 10:00 -3,1 C 84 % 1031,7 hPa 0,0 l/m 0,0 km/h N -5,4 C -3,1 C 0,4 km/h
04.12.2016 11:00 -1,6 C 84 % 1031,4 hPa 0,0 l/m 0,0 km/h N -3,9 C -1,6 C 1,2 km/h
04.12.2016 12:00 -0,8 C 84 % 1031,3 hPa 0,0 l/m 0,0 km/h N -3,2 C -0,8 C 2,0 km/h
04.12.2016 13:00 -0,3 C 84 % 1031,1 hPa 0,0 l/m 0,0 km/h N -2,6 C -0,3 C 1,6 km/h
04.12.2016 14:00 0,2 C 84 % 1031,2 hPa 0,0 l/m 0,0 km/h N -2,2 C 0,2 C 0,0 km/h
04.12.2016 15:00 0,3 C 84 % 1031,4 hPa 0,0 l/m 0,0 km/h N -2,1 C 0,3 C 0,0 km/h
04.12.2016 16:00 -1,0 C 83 % 1031,7 hPa 0,0 l/m 0,0 km/h N -3,5 C -1,0 C 0,0 km/h
04.12.2016 17:00 -2,4 C 82 % 1032,3 hPa 0,0 l/m 0,0 km/h N -5,0 C -2,4 C 0,0 km/h
04.12.2016 18:00 -3,5 C 83 % 1032,5 hPa 0,0 l/m 0,0 km/h N -5,9 C -3,5 C 0,0 km/h
04.12.2016 19:00 -4,3 C 83 % 1032,8 hPa 0,0 l/m 0,0 km/h N -6,8 C -4,3 C 0,0 km/h
04.12.2016 20:00 -5,0 C 84 % 1032,9 hPa 0,0 l/m 0,0 km/h N -7,3 C -5,0 C 0,0 km/h
04.12.2016 21:00 -5,5 C 84 % 1032,9 hPa 0,0 l/m 0,0 km/h N -7,8 C -5,5 C 0,0 km/h
04.12.2016 22:00 -5,8 C 84 % 1032,9 hPa 0,0 l/m 0,0 km/h N -8,1 C -5,8 C 0,0 km/h
04.12.2016 23:00 -6,1 C 84 % 1032,8 hPa 0,0 l/m 0,0 km/h N -8,4 C -6,1 C 0,0 km/h
Min-Datum _ 04.12.16 30.11.16 02.12.16 - 30.11.16 - 04.12.16 04.12.16 30.11.16
_ Min-Zeit 06:30 11:45 07:30 - 00:45 - 06:30 06:30 01:15
Minimum _ -7,2 C 43 % 1007,6 hPa - 0,0 km/h - -9,4 C -7,2 C 0,0 km/h
Max-Datum _ 01.12.16 04.12.16 29.11.16 02.12.16 02.12.16 - 02.12.16 30.11.16 02.12.16
_ Max-Zeit 19:30 07:45 10:00 10:45 03:30 - 10:00 12:45 06:30
Maximum _ 6,8 C 85 % 1034,2 hPa 3,4 l/m 27,4 km/h
N
- 2,2 C 5,1 C 75,6 km/h
N
Durchschnitt _ 1,0 C 72 % 1025,2 hPa #9,4 l/m 7,4 km/h N -3,6 C -1,3 C 20,2 km/h